createdAt,value
2022-11-19T00:00:40.747Z,1004.27
2022-11-19T00:01:40.762Z,1004.29
2022-11-19T00:02:40.776Z,1004.29
2022-11-19T00:03:40.796Z,1004.28
2022-11-19T00:04:40.810Z,1004.31
2022-11-19T00:05:40.828Z,1004.27
2022-11-19T00:06:40.843Z,1004.37
2022-11-19T00:07:40.912Z,1004.29
2022-11-19T00:08:40.880Z,1004.27
2022-11-19T00:09:40.891Z,1004.30
2022-11-19T00:10:40.909Z,1004.36
2022-11-19T00:11:40.927Z,1004.29
2022-11-19T00:12:40.944Z,1004.43
2022-11-19T00:13:40.961Z,1004.38
2022-11-19T00:14:40.977Z,1004.37
2022-11-19T00:15:40.992Z,1004.33
2022-11-19T00:16:41.007Z,1004.36
2022-11-19T00:17:41.026Z,1004.36
2022-11-19T00:18:41.049Z,1004.38
2022-11-19T00:19:41.063Z,1004.37
2022-11-19T00:20:41.077Z,1004.39
2022-11-19T00:21:41.093Z,1004.43
2022-11-19T00:22:41.116Z,1004.43
2022-11-19T00:23:41.132Z,1004.39
2022-11-19T00:24:41.154Z,1004.41
2022-11-19T00:25:41.163Z,1004.45
2022-11-19T00:26:41.175Z,1004.47
2022-11-19T00:27:41.194Z,1004.47
2022-11-19T00:28:41.209Z,1004.44
2022-11-19T00:29:41.229Z,1004.44
2022-11-19T00:30:48.196Z,1004.41
2022-11-19T00:31:41.260Z,1004.49
2022-11-19T00:32:41.274Z,1004.51
2022-11-19T00:33:41.291Z,1004.52
2022-11-19T00:34:41.314Z,1004.48
2022-11-19T00:35:41.331Z,1004.54
2022-11-19T00:36:41.344Z,1004.49
2022-11-19T00:37:41.364Z,1004.55
2022-11-19T00:38:41.374Z,1004.52
2022-11-19T00:39:41.392Z,1004.56
2022-11-19T00:40:41.407Z,1004.56
2022-11-19T00:41:41.426Z,1004.58
2022-11-19T00:42:41.441Z,1004.57
2022-11-19T00:43:41.458Z,1004.62
2022-11-19T00:44:41.474Z,1004.60
2022-11-19T00:45:41.490Z,1004.65
2022-11-19T00:46:41.506Z,1004.67
2022-11-19T00:47:41.530Z,1004.62
2022-11-19T00:48:41.543Z,1004.59
2022-11-19T00:49:41.557Z,1004.61
2022-11-19T00:50:41.574Z,1004.61
2022-11-19T00:51:41.589Z,1004.61
2022-11-19T00:52:41.613Z,1004.61
2022-11-19T00:53:41.629Z,1004.62
2022-11-19T00:54:41.638Z,1004.71
2022-11-19T00:55:41.656Z,1004.69
2022-11-19T00:56:41.671Z,1004.72
2022-11-19T00:57:41.695Z,1004.71
2022-11-19T00:58:41.709Z,1004.73
2022-11-19T00:59:41.725Z,1004.72
2022-11-19T01:00:41.740Z,1004.72
2022-11-19T01:01:41.836Z,1004.79
2022-11-19T01:02:41.778Z,1004.74
2022-11-19T01:03:41.787Z,1004.78
2022-11-19T01:04:41.804Z,1004.83
2022-11-19T01:05:41.822Z,1004.78
2022-11-19T01:06:41.837Z,1004.80
2022-11-19T01:07:41.855Z,1004.84
2022-11-19T01:08:41.872Z,1004.87
2022-11-19T01:09:41.889Z,1004.82
2022-11-19T01:10:41.905Z,1004.80
2022-11-19T01:11:41.940Z,1004.80
2022-11-19T01:12:41.937Z,1004.79
2022-11-19T01:13:41.954Z,1004.86
2022-11-19T01:14:41.969Z,1004.81
2022-11-19T01:15:41.988Z,1004.79
2022-11-19T01:16:42.009Z,1004.81
2022-11-19T01:17:42.022Z,1004.83
2022-11-19T01:18:42.069Z,1004.83
2022-11-19T01:19:42.054Z,1004.84
2022-11-19T01:20:42.127Z,1004.85
2022-11-19T01:21:42.090Z,1004.80
2022-11-19T01:22:42.105Z,1004.85
2022-11-19T01:23:42.121Z,1004.85
2022-11-19T01:24:42.156Z,1004.92
2022-11-19T01:25:42.155Z,1004.87
2022-11-19T01:26:45.706Z,1004.87
2022-11-19T01:27:42.188Z,1004.85
2022-11-19T01:28:42.207Z,1004.86
2022-11-19T01:29:42.221Z,1004.90
2022-11-19T01:30:42.233Z,1004.92
2022-11-19T01:31:42.250Z,1004.93
2022-11-19T01:32:42.277Z,1004.88
2022-11-19T01:33:42.302Z,1004.95
2022-11-19T01:34:42.300Z,1004.89
2022-11-19T01:35:42.319Z,1004.89
2022-11-19T01:36:42.337Z,1004.89
2022-11-19T01:37:42.354Z,1004.89
2022-11-19T01:38:42.374Z,1004.88
2022-11-19T01:39:42.385Z,1004.89
2022-11-19T01:40:42.403Z,1004.91
2022-11-19T01:41:42.419Z,1004.88
2022-11-19T01:42:42.437Z,1004.92
2022-11-19T01:43:42.454Z,1004.97
2022-11-19T01:44:42.470Z,1004.92
2022-11-19T01:45:42.485Z,1004.99
2022-11-19T01:46:42.500Z,1004.95
2022-11-19T01:47:42.519Z,1005.00
2022-11-19T01:48:42.536Z,1004.97
2022-11-19T01:49:42.552Z,1005.02
2022-11-19T01:50:42.583Z,1005.01
2022-11-19T01:51:42.591Z,1005.00
2022-11-19T01:52:42.601Z,1005.02
2022-11-19T01:53:42.618Z,1005.02
2022-11-19T01:54:42.635Z,1005.00
2022-11-19T01:55:42.652Z,1005.04
2022-11-19T01:56:42.681Z,1005.04
2022-11-19T01:57:42.686Z,1005.06
2022-11-19T01:58:42.700Z,1005.11
2022-11-19T01:59:42.717Z,1005.10
2022-11-19T02:00:42.731Z,1005.12
2022-11-19T02:01:42.795Z,1005.15
2022-11-19T02:02:42.767Z,1005.15
2022-11-19T02:03:42.784Z,1005.16
2022-11-19T02:04:42.807Z,1005.13
2022-11-19T02:05:42.820Z,1005.23
2022-11-19T02:06:42.831Z,1005.16
2022-11-19T02:07:42.856Z,1005.18
2022-11-19T02:08:42.865Z,1005.16
2022-11-19T02:09:42.884Z,1005.19
2022-11-19T02:10:42.898Z,1005.18
2022-11-19T02:11:42.916Z,1005.10
2022-11-19T02:12:42.936Z,1005.23
2022-11-19T02:13:42.960Z,1005.18
2022-11-19T02:14:42.964Z,1005.19
2022-11-19T02:15:42.990Z,1005.21
2022-11-19T02:16:43.002Z,1005.19
2022-11-19T02:17:43.020Z,1005.22
2022-11-19T02:18:43.033Z,1005.22
2022-11-19T02:19:43.049Z,1005.18
2022-11-19T02:20:43.093Z,1005.22
2022-11-19T02:21:43.082Z,1005.22
2022-11-19T02:22:43.096Z,1005.25
2022-11-19T02:23:46.175Z,1005.21
2022-11-19T02:24:43.132Z,1005.22
2022-11-19T02:25:43.149Z,1005.21
2022-11-19T02:26:43.163Z,1005.26
2022-11-19T02:27:43.181Z,1005.24
2022-11-19T02:28:43.195Z,1005.24
2022-11-19T02:29:43.214Z,1005.29
2022-11-19T02:30:43.242Z,1005.24
2022-11-19T02:31:43.246Z,1005.28
2022-11-19T02:32:43.265Z,1005.31
2022-11-19T02:33:43.282Z,1005.30
2022-11-19T02:34:43.302Z,1005.25
2022-11-19T02:35:43.312Z,1005.33
2022-11-19T02:36:43.332Z,1005.37
2022-11-19T02:37:43.350Z,1005.34
2022-11-19T02:38:43.358Z,1005.38
2022-11-19T02:39:43.379Z,1005.34
2022-11-19T02:40:43.390Z,1005.37
2022-11-19T02:41:43.419Z,1005.35
2022-11-19T02:42:43.427Z,1005.37
2022-11-19T02:43:43.444Z,1005.41
2022-11-19T02:44:43.459Z,1005.38
2022-11-19T02:45:43.480Z,1005.40
2022-11-19T02:46:43.493Z,1005.47
2022-11-19T02:47:43.510Z,1005.52
2022-11-19T02:48:43.528Z,1005.44
2022-11-19T02:49:43.548Z,1005.50
2022-11-19T02:50:43.558Z,1005.46
2022-11-19T02:51:43.580Z,1005.58
2022-11-19T02:52:43.592Z,1005.53
2022-11-19T02:53:43.610Z,1005.49
2022-11-19T02:54:43.628Z,1005.51
2022-11-19T02:55:43.640Z,1005.56
2022-11-19T02:56:43.660Z,1005.54
2022-11-19T02:57:43.674Z,1005.57
2022-11-19T02:58:43.688Z,1005.53
2022-11-19T02:59:43.716Z,1005.48
2022-11-19T03:00:43.723Z,1005.51
2022-11-19T03:01:43.795Z,1005.47
2022-11-19T03:02:43.755Z,1005.51
2022-11-19T03:03:43.771Z,1005.52
2022-11-19T03:04:43.788Z,1005.51
2022-11-19T03:05:43.807Z,1005.51
2022-11-19T03:06:43.821Z,1005.54
2022-11-19T03:07:43.836Z,1005.50
2022-11-19T03:08:43.855Z,1005.47
2022-11-19T03:09:43.870Z,1005.56
2022-11-19T03:10:43.885Z,1005.56
2022-11-19T03:11:43.903Z,1005.61
2022-11-19T03:12:43.920Z,1005.60
2022-11-19T03:13:43.941Z,1005.64
2022-11-19T03:14:43.949Z,1005.69
2022-11-19T03:15:43.977Z,1005.66
2022-11-19T03:16:43.987Z,1005.63
2022-11-19T03:17:44.001Z,1005.71
2022-11-19T03:18:44.025Z,1005.69
2022-11-19T03:19:44.041Z,1005.64
2022-11-19T03:20:44.063Z,1005.64
2022-11-19T03:21:44.069Z,1005.64
2022-11-19T03:22:44.083Z,1005.70
2022-11-19T03:23:44.104Z,1005.76
2022-11-19T03:24:44.120Z,1005.71
2022-11-19T03:25:44.137Z,1005.68
2022-11-19T03:26:44.150Z,1005.68
2022-11-19T03:27:44.167Z,1005.71
2022-11-19T03:28:44.185Z,1005.73
2022-11-19T03:29:44.198Z,1005.71
2022-11-19T03:30:44.213Z,1005.71
2022-11-19T03:31:44.235Z,1005.70
2022-11-19T03:32:44.252Z,1005.69
2022-11-19T03:33:44.264Z,1005.71
2022-11-19T03:34:44.282Z,1005.65
2022-11-19T03:35:44.296Z,1005.68
2022-11-19T03:36:44.312Z,1005.67
2022-11-19T03:37:44.333Z,1005.63
2022-11-19T03:38:44.344Z,1005.61
2022-11-19T03:39:44.363Z,1005.67
2022-11-19T03:40:44.377Z,1005.71
2022-11-19T03:41:44.394Z,1005.76
2022-11-19T03:42:44.425Z,1005.74
2022-11-19T03:43:44.428Z,1005.73
2022-11-19T03:44:44.450Z,1005.77
2022-11-19T03:45:44.461Z,1005.68
2022-11-19T03:46:44.474Z,1005.66
2022-11-19T03:47:44.490Z,1005.71
2022-11-19T03:48:44.509Z,1005.66
2022-11-19T03:49:44.525Z,1005.68
2022-11-19T03:50:44.539Z,1005.67
2022-11-19T03:51:44.565Z,1005.69
2022-11-19T03:52:44.580Z,1005.78
2022-11-19T03:53:44.587Z,1005.74
2022-11-19T03:54:44.607Z,1005.76
2022-11-19T03:55:44.622Z,1005.76
2022-11-19T03:56:44.641Z,1005.80
2022-11-19T03:57:44.654Z,1005.77
2022-11-19T03:58:44.684Z,1005.76
2022-11-19T03:59:44.688Z,1005.77
2022-11-19T04:00:44.703Z,1005.78
2022-11-19T04:01:44.743Z,1005.74
2022-11-19T04:02:44.735Z,1005.79
2022-11-19T04:03:44.749Z,1005.76
2022-11-19T04:04:44.770Z,1005.80
2022-11-19T04:05:44.783Z,1005.79
2022-11-19T04:06:44.799Z,1005.79
2022-11-19T04:07:44.813Z,1005.83
2022-11-19T04:08:44.832Z,1005.83
2022-11-19T04:09:44.846Z,1005.75
2022-11-19T04:10:44.861Z,1005.78
2022-11-19T04:12:05.891Z,1005.75
2022-11-19T04:12:44.893Z,1005.87
2022-11-19T04:13:44.911Z,1005.76
2022-11-19T04:14:44.931Z,1005.80
2022-11-19T04:15:44.940Z,1005.77
2022-11-19T04:16:44.966Z,1005.78
2022-11-19T04:17:44.974Z,1005.80
2022-11-19T04:18:44.999Z,1005.85
2022-11-19T04:19:45.004Z,1005.89
2022-11-19T04:20:45.020Z,1005.85
2022-11-19T04:21:45.036Z,1005.87
2022-11-19T04:22:45.051Z,1005.86
2022-11-19T04:23:45.066Z,1005.89
2022-11-19T04:24:45.087Z,1005.87
2022-11-19T04:25:45.111Z,1005.90
2022-11-19T04:26:45.113Z,1005.92
2022-11-19T04:27:45.146Z,1005.91
2022-11-19T04:28:45.143Z,1005.93
2022-11-19T04:29:45.159Z,1005.96
2022-11-19T04:30:45.174Z,1006.00
2022-11-19T04:31:45.189Z,1005.97
2022-11-19T04:32:45.202Z,1005.96
2022-11-19T04:33:45.226Z,1006.02
2022-11-19T04:34:45.235Z,1006.05
2022-11-19T04:35:45.250Z,1006.08
2022-11-19T04:36:45.265Z,1006.08
2022-11-19T04:37:45.284Z,1006.05
2022-11-19T04:38:45.301Z,1006.07
2022-11-19T04:39:45.314Z,1006.06
2022-11-19T04:40:45.330Z,1006.04
2022-11-19T04:41:45.345Z,1006.03
2022-11-19T04:42:45.357Z,1006.09
2022-11-19T04:43:45.375Z,1006.17
2022-11-19T04:44:45.393Z,1006.09
2022-11-19T04:45:45.408Z,1006.10
2022-11-19T04:46:45.419Z,1006.11
2022-11-19T04:47:45.437Z,1006.16
2022-11-19T04:48:45.455Z,1006.18
2022-11-19T04:49:45.466Z,1006.16
2022-11-19T04:50:45.480Z,1006.18
2022-11-19T04:51:45.499Z,1006.20
2022-11-19T04:52:45.524Z,1006.18
2022-11-19T04:53:45.531Z,1006.25
2022-11-19T04:54:45.553Z,1006.23
2022-11-19T04:55:45.561Z,1006.25
2022-11-19T04:56:45.570Z,1006.27
2022-11-19T04:57:45.590Z,1006.28
2022-11-19T04:58:45.606Z,1006.27
2022-11-19T04:59:45.671Z,1006.34
2022-11-19T05:00:45.640Z,1006.26
2022-11-19T05:01:45.692Z,1006.25
2022-11-19T05:02:45.665Z,1006.24
2022-11-19T05:03:45.684Z,1006.24
2022-11-19T05:04:45.695Z,1006.26
2022-11-19T05:05:45.717Z,1006.25
2022-11-19T05:06:45.727Z,1006.25
2022-11-19T05:07:45.743Z,1006.25
2022-11-19T05:08:45.760Z,1006.32
2022-11-19T05:09:45.782Z,1006.27
2022-11-19T05:10:45.790Z,1006.30
2022-11-19T05:11:45.807Z,1006.32
2022-11-19T05:12:45.822Z,1006.29
2022-11-19T05:13:45.836Z,1006.38
2022-11-19T05:14:45.851Z,1006.36
2022-11-19T05:15:45.867Z,1006.44
2022-11-19T05:16:45.880Z,1006.39
2022-11-19T05:17:45.910Z,1006.46
2022-11-19T05:18:45.910Z,1006.47
2022-11-19T05:19:45.930Z,1006.45
2022-11-19T05:20:45.938Z,1006.43
2022-11-19T05:21:45.959Z,1006.51
2022-11-19T05:22:45.968Z,1006.48
2022-11-19T05:23:46.038Z,1006.50
2022-11-19T05:24:46.001Z,1006.45
2022-11-19T05:25:46.017Z,1006.47
2022-11-19T05:26:46.031Z,1006.50
2022-11-19T05:27:46.054Z,1006.51
2022-11-19T05:28:46.071Z,1006.52
2022-11-19T05:29:46.079Z,1006.56
2022-11-19T05:30:46.092Z,1006.53
2022-11-19T05:31:46.108Z,1006.50
2022-11-19T05:32:46.124Z,1006.53
2022-11-19T05:33:46.141Z,1006.55
2022-11-19T05:34:46.148Z,1006.56
2022-11-19T05:35:46.169Z,1006.62
2022-11-19T05:36:46.184Z,1006.60
2022-11-19T05:37:46.196Z,1006.60
2022-11-19T05:38:46.212Z,1006.67
2022-11-19T05:39:46.224Z,1006.63
2022-11-19T05:40:46.244Z,1006.67
2022-11-19T05:41:46.258Z,1006.65
2022-11-19T05:42:46.275Z,1006.70
2022-11-19T05:43:46.286Z,1006.67
2022-11-19T05:44:46.304Z,1006.70
2022-11-19T05:45:46.321Z,1006.72
2022-11-19T05:46:46.333Z,1006.70
2022-11-19T05:47:48.754Z,1006.72
2022-11-19T05:48:46.365Z,1006.73
2022-11-19T05:49:46.378Z,1006.74
2022-11-19T05:50:46.391Z,1006.71
2022-11-19T05:51:46.406Z,1006.76
2022-11-19T05:52:46.422Z,1006.75
2022-11-19T05:53:46.465Z,1006.79
2022-11-19T05:54:46.451Z,1006.74
2022-11-19T05:55:46.465Z,1006.80
2022-11-19T05:56:46.492Z,1006.77
2022-11-19T05:57:46.498Z,1006.79
2022-11-19T05:58:46.510Z,1006.75
2022-11-19T05:59:46.528Z,1006.83
2022-11-19T06:00:46.542Z,1006.78
2022-11-19T06:01:46.557Z,1006.83
2022-11-19T06:02:46.630Z,1006.79
2022-11-19T06:03:46.587Z,1006.74
2022-11-19T06:04:46.601Z,1006.79
2022-11-19T06:05:46.631Z,1006.88
2022-11-19T06:06:46.628Z,1006.83
2022-11-19T06:07:46.646Z,1006.85
2022-11-19T06:08:46.662Z,1006.85
2022-11-19T06:09:46.676Z,1006.91
2022-11-19T06:10:46.688Z,1006.90
2022-11-19T06:11:46.706Z,1006.89
2022-11-19T06:12:46.732Z,1006.91
2022-11-19T06:13:46.731Z,1006.96
2022-11-19T06:14:46.747Z,1006.92
2022-11-19T06:15:46.763Z,1006.94
2022-11-19T06:16:46.781Z,1006.99
2022-11-19T06:17:46.794Z,1006.99
2022-11-19T06:18:46.851Z,1006.99
2022-11-19T06:19:46.833Z,1006.98
2022-11-19T06:20:46.844Z,1007.03
2022-11-19T06:21:46.853Z,1007.00
2022-11-19T06:22:46.868Z,1007.05
2022-11-19T06:23:46.881Z,1007.10
2022-11-19T06:24:46.896Z,1007.11
2022-11-19T06:25:46.912Z,1007.09
2022-11-19T06:26:46.926Z,1007.11
2022-11-19T06:27:46.943Z,1007.13
2022-11-19T06:28:46.956Z,1007.19
2022-11-19T06:29:46.974Z,1007.22
2022-11-19T06:30:46.990Z,1007.20
2022-11-19T06:31:46.999Z,1007.28
2022-11-19T06:32:47.016Z,1007.21
2022-11-19T06:33:47.030Z,1007.21
2022-11-19T06:34:47.040Z,1007.21
2022-11-19T06:35:47.071Z,1007.19
2022-11-19T06:36:50.507Z,1007.23
2022-11-19T06:37:47.089Z,1007.32
2022-11-19T06:38:47.103Z,1007.28
2022-11-19T06:39:47.119Z,1007.23
2022-11-19T06:40:47.131Z,1007.27
2022-11-19T06:41:47.147Z,1007.27
2022-11-19T06:42:50.789Z,1007.28
2022-11-19T06:43:47.176Z,1007.29
2022-11-19T06:44:47.190Z,1007.25
2022-11-19T06:45:47.223Z,1007.26
2022-11-19T06:46:47.219Z,1007.31
2022-11-19T06:47:47.237Z,1007.32
2022-11-19T06:48:47.247Z,1007.30
2022-11-19T06:49:47.263Z,1007.32
2022-11-19T06:50:47.277Z,1007.36
2022-11-19T06:51:47.290Z,1007.33
2022-11-19T06:52:47.306Z,1007.35
2022-11-19T06:53:47.322Z,1007.34
2022-11-19T06:54:47.337Z,1007.38
2022-11-19T06:55:47.364Z,1007.38
2022-11-19T06:56:47.365Z,1007.36
2022-11-19T06:57:47.381Z,1007.38
2022-11-19T06:58:47.394Z,1007.44
2022-11-19T06:59:47.407Z,1007.44
2022-11-19T07:00:47.424Z,1007.45
2022-11-19T07:01:47.635Z,1007.45
2022-11-19T07:02:47.451Z,1007.48
2022-11-19T07:03:47.467Z,1007.48
2022-11-19T07:04:47.479Z,1007.51
2022-11-19T07:05:47.496Z,1007.52
2022-11-19T07:06:47.521Z,1007.55
2022-11-19T07:07:47.526Z,1007.51
2022-11-19T07:08:47.540Z,1007.51
2022-11-19T07:09:47.555Z,1007.56
2022-11-19T07:10:47.573Z,1007.55
2022-11-19T07:11:47.586Z,1007.57
2022-11-19T07:12:47.595Z,1007.60
2022-11-19T07:13:47.610Z,1007.60
2022-11-19T07:14:47.649Z,1007.61
2022-11-19T07:15:47.637Z,1007.57
2022-11-19T07:16:47.654Z,1007.60
2022-11-19T07:17:47.670Z,1007.64
2022-11-19T07:18:47.685Z,1007.65
2022-11-19T07:19:47.698Z,1007.63
2022-11-19T07:20:47.714Z,1007.65
2022-11-19T07:21:47.726Z,1007.66
2022-11-19T07:22:47.743Z,1007.65
2022-11-19T07:23:47.760Z,1007.70
2022-11-19T07:24:47.774Z,1007.66
2022-11-19T07:25:47.786Z,1007.72
2022-11-19T07:26:47.803Z,1007.70
2022-11-19T07:27:47.814Z,1007.72
2022-11-19T07:28:47.827Z,1007.75
2022-11-19T07:29:47.848Z,1007.74
2022-11-19T07:30:47.857Z,1007.73
2022-11-19T07:31:47.872Z,1007.74
2022-11-19T07:32:47.887Z,1007.78
2022-11-19T07:33:47.909Z,1007.71
2022-11-19T07:34:47.923Z,1007.78
2022-11-19T07:35:47.933Z,1007.75
2022-11-19T07:36:47.944Z,1007.76
2022-11-19T07:37:47.961Z,1007.78
2022-11-19T07:38:47.975Z,1007.75
2022-11-19T07:39:47.993Z,1007.76
2022-11-19T07:40:48.004Z,1007.74
2022-11-19T07:41:48.020Z,1007.75
2022-11-19T07:42:48.032Z,1007.82
2022-11-19T07:43:48.058Z,1007.80
2022-11-19T07:44:53.539Z,1007.86
2022-11-19T07:45:48.078Z,1007.81
2022-11-19T07:46:48.091Z,1007.91
2022-11-19T07:47:48.100Z,1007.83
2022-11-19T07:48:48.121Z,1007.96
2022-11-19T07:49:48.132Z,1007.93
2022-11-19T07:50:52.352Z,1008.01
2022-11-19T07:51:48.163Z,1008.00
2022-11-19T07:52:48.190Z,1007.96
2022-11-19T07:53:48.193Z,1007.98
2022-11-19T07:54:48.217Z,1008.03
2022-11-19T07:55:48.220Z,1007.91
2022-11-19T07:56:48.238Z,1007.98
2022-11-19T07:57:48.249Z,1008.02
2022-11-19T07:58:48.265Z,1008.00
2022-11-19T07:59:48.277Z,1008.03
2022-11-19T08:00:48.296Z,1007.99
2022-11-19T08:01:48.368Z,1008.11
2022-11-19T08:02:48.323Z,1008.00
2022-11-19T08:03:52.037Z,1008.07
2022-11-19T08:04:48.355Z,1008.06
2022-11-19T08:05:48.369Z,1008.08
2022-11-19T08:06:48.383Z,1008.04
2022-11-19T08:07:48.396Z,1008.02
2022-11-19T08:08:48.413Z,1008.09
2022-11-19T08:09:48.425Z,1008.10
2022-11-19T08:10:48.445Z,1008.13
2022-11-19T08:11:48.454Z,1008.26
2022-11-19T08:12:48.470Z,1008.11
2022-11-19T08:13:48.483Z,1008.09
2022-11-19T08:14:48.499Z,1008.12
2022-11-19T08:15:48.513Z,1008.13
2022-11-19T08:16:48.527Z,1008.09
2022-11-19T08:17:48.547Z,1008.10
2022-11-19T08:18:48.560Z,1008.24
2022-11-19T08:19:48.589Z,1008.08
2022-11-19T08:20:48.604Z,1008.09
2022-11-19T08:21:48.603Z,1008.15
2022-11-19T08:22:48.622Z,1008.17
2022-11-19T08:23:48.630Z,1008.08
2022-11-19T08:24:48.649Z,1008.15
2022-11-19T08:25:48.664Z,1008.20
2022-11-19T08:26:48.691Z,1008.13
2022-11-19T08:27:48.690Z,1008.16
2022-11-19T08:28:48.706Z,1008.19
2022-11-19T08:29:48.722Z,1008.23
2022-11-19T08:30:48.736Z,1008.22
2022-11-19T08:31:48.752Z,1008.25
2022-11-19T08:32:48.780Z,1008.22
2022-11-19T08:33:48.778Z,1008.23
2022-11-19T08:34:48.796Z,1008.22
2022-11-19T08:35:48.843Z,1008.23
2022-11-19T08:36:48.826Z,1008.20
2022-11-19T08:37:48.840Z,1008.22
2022-11-19T08:38:48.856Z,1008.21
2022-11-19T08:39:48.870Z,1008.24
2022-11-19T08:40:48.884Z,1008.16
2022-11-19T08:41:48.899Z,1008.21
2022-11-19T08:42:48.913Z,1008.22
2022-11-19T08:43:48.930Z,1008.23
2022-11-19T08:44:48.946Z,1008.23
2022-11-19T08:45:48.961Z,1008.23
2022-11-19T08:46:48.976Z,1008.26
2022-11-19T08:47:48.986Z,1008.29
2022-11-19T08:48:49.009Z,1008.30
2022-11-19T08:49:49.055Z,1008.41
2022-11-19T08:50:49.040Z,1008.35
2022-11-19T08:51:49.045Z,1008.34
2022-11-19T08:52:49.066Z,1008.27
2022-11-19T08:53:49.080Z,1008.24
2022-11-19T08:54:49.115Z,1008.29
2022-11-19T08:55:49.109Z,1008.25
2022-11-19T08:56:49.125Z,1008.29
2022-11-19T08:57:49.139Z,1008.23
2022-11-19T08:58:49.160Z,1008.22
2022-11-19T08:59:49.170Z,1008.26
2022-11-19T09:00:49.216Z,1008.24
2022-11-19T09:01:49.203Z,1008.25
2022-11-19T09:02:49.215Z,1008.23
2022-11-19T09:03:49.230Z,1008.24
2022-11-19T09:04:49.243Z,1008.28
2022-11-19T09:05:49.270Z,1008.20
2022-11-19T09:06:49.284Z,1008.24
2022-11-19T09:07:49.294Z,1008.26
2022-11-19T09:08:49.308Z,1008.32
2022-11-19T09:09:49.341Z,1008.35
2022-11-19T09:10:49.335Z,1008.29
2022-11-19T09:11:49.369Z,1008.31
2022-11-19T09:12:49.368Z,1008.37
2022-11-19T09:13:49.386Z,1008.41
2022-11-19T09:14:49.398Z,1008.35
2022-11-19T09:15:49.414Z,1008.38
2022-11-19T09:16:49.431Z,1008.42
2022-11-19T09:17:49.450Z,1008.36
2022-11-19T09:18:49.461Z,1008.41
2022-11-19T09:19:49.480Z,1008.42
2022-11-19T09:20:49.498Z,1008.42
2022-11-19T09:21:49.506Z,1008.41
2022-11-19T09:22:49.521Z,1008.43
2022-11-19T09:23:49.538Z,1008.42
2022-11-19T09:24:49.555Z,1008.44
2022-11-19T09:25:49.565Z,1008.42
2022-11-19T09:26:52.825Z,1008.43
2022-11-19T09:27:49.599Z,1008.46
2022-11-19T09:28:49.614Z,1008.44
2022-11-19T09:29:49.635Z,1008.52
2022-11-19T09:30:49.646Z,1008.46
2022-11-19T09:31:49.663Z,1008.41
2022-11-19T09:32:49.694Z,1008.39
2022-11-19T09:33:49.692Z,1008.45
2022-11-19T09:34:49.707Z,1008.48
2022-11-19T09:35:49.727Z,1008.50
2022-11-19T09:36:49.736Z,1008.59
2022-11-19T09:37:49.756Z,1008.55
2022-11-19T09:38:49.772Z,1008.62
2022-11-19T09:39:56.942Z,1008.62
2022-11-19T09:41:43.256Z,1008.69
2022-11-19T09:42:42.724Z,1008.66
2022-11-19T09:44:46.714Z,1008.70
2022-11-19T09:45:46.728Z,1008.61
2022-11-19T09:47:51.207Z,1008.64
2022-11-19T09:48:50.758Z,1008.62
2022-11-19T09:50:54.728Z,1008.66
2022-11-19T09:51:54.735Z,1008.68
2022-11-19T09:53:59.224Z,1008.55
2022-11-19T09:54:58.740Z,1008.62
2022-11-19T09:57:04.532Z,1008.60
2022-11-19T09:58:02.757Z,1008.59
2022-11-19T10:00:07.743Z,1008.60
2022-11-19T10:01:06.749Z,1008.57
2022-11-19T10:03:10.790Z,1008.55
2022-11-19T10:04:10.761Z,1008.57
2022-11-19T10:06:15.250Z,1008.56
2022-11-19T10:07:14.771Z,1008.60
2022-11-19T10:09:18.763Z,1008.60
2022-11-19T10:10:18.772Z,1008.62
2022-11-19T10:12:23.253Z,1008.63
2022-11-19T10:13:22.766Z,1008.60
2022-11-19T10:15:26.776Z,1008.59
2022-11-19T10:16:26.782Z,1008.56
2022-11-19T10:18:32.265Z,1008.59
2022-11-19T10:19:31.835Z,1008.58
2022-11-19T10:21:24.714Z,1008.56
2022-11-19T10:22:24.723Z,1008.54
2022-11-19T10:24:29.199Z,1008.56
2022-11-19T10:25:28.719Z,1008.56
2022-11-19T10:27:32.724Z,1008.52
2022-11-19T10:28:32.727Z,1008.59
2022-11-19T10:30:37.215Z,1008.56
2022-11-19T10:31:36.737Z,1008.62
2022-11-19T10:33:40.742Z,1008.59
2022-11-19T10:34:40.746Z,1008.60
2022-11-19T10:36:45.245Z,1008.63
2022-11-19T10:37:44.773Z,1008.64
2022-11-19T10:39:48.773Z,1008.70
2022-11-19T10:40:48.775Z,1008.64
2022-11-19T10:42:53.257Z,1008.67
2022-11-19T10:43:52.798Z,1008.64
2022-11-19T10:45:57.289Z,1008.79
2022-11-19T10:46:57.294Z,1008.65
2022-11-19T10:47:57.312Z,1008.64
2022-11-19T10:48:57.329Z,1008.63
2022-11-19T10:49:57.347Z,1008.68
2022-11-19T10:50:57.358Z,1008.64
2022-11-19T10:51:57.377Z,1008.64
2022-11-19T10:52:57.389Z,1008.60
2022-11-19T10:53:57.407Z,1008.63
2022-11-19T10:54:57.425Z,1008.58
2022-11-19T10:55:57.441Z,1008.57
2022-11-19T10:56:57.453Z,1008.60
2022-11-19T10:57:57.473Z,1008.54
2022-11-19T10:58:57.496Z,1008.51
2022-11-19T10:59:57.510Z,1008.52
2022-11-19T11:00:57.591Z,1008.48
2022-11-19T11:01:57.549Z,1008.50
2022-11-19T11:03:04.713Z,1008.49
2022-11-19T11:05:02.037Z,1008.46
2022-11-19T11:06:01.563Z,1008.42
2022-11-19T11:08:05.564Z,1008.44
2022-11-19T11:09:05.564Z,1008.45
2022-11-19T11:10:59.534Z,1008.47
2022-11-19T11:11:58.993Z,1008.43
2022-11-19T11:12:59.028Z,1008.41
2022-11-19T11:13:59.025Z,1008.45
2022-11-19T11:14:59.042Z,1008.44
2022-11-19T11:15:59.062Z,1008.41
2022-11-19T11:16:59.072Z,1008.35
2022-11-19T11:17:59.093Z,1008.35
2022-11-19T11:18:59.107Z,1008.38
2022-11-19T11:19:59.123Z,1008.37
2022-11-19T11:20:59.142Z,1008.40
2022-11-19T11:21:59.158Z,1008.30
2022-11-19T11:22:59.174Z,1008.36
2022-11-19T11:23:59.190Z,1008.27
2022-11-19T11:25:02.811Z,1008.31
2022-11-19T11:25:59.221Z,1008.27
2022-11-19T11:26:59.242Z,1008.28
2022-11-19T11:27:59.259Z,1008.28
2022-11-19T11:28:59.276Z,1008.29
2022-11-19T11:29:59.294Z,1008.28
2022-11-19T11:30:59.308Z,1008.24
2022-11-19T11:31:59.352Z,1008.22
2022-11-19T11:32:59.342Z,1008.23
2022-11-19T11:33:59.361Z,1008.20
2022-11-19T11:35:03.500Z,1008.23
2022-11-19T11:35:59.391Z,1008.14
2022-11-19T11:36:59.411Z,1008.17
2022-11-19T11:37:59.431Z,1008.17
2022-11-19T11:38:59.444Z,1008.15
2022-11-19T11:39:59.463Z,1008.15
2022-11-19T11:41:30.030Z,1008.14
2022-11-19T11:42:05.939Z,1008.13
2022-11-19T11:42:59.510Z,1008.17
2022-11-19T11:43:59.530Z,1008.14
2022-11-19T11:44:59.570Z,1008.20
2022-11-19T11:45:59.570Z,1008.25
2022-11-19T11:46:59.580Z,1008.17
2022-11-19T11:47:59.600Z,1008.19
2022-11-19T11:49:05.865Z,1008.23
2022-11-19T11:49:59.633Z,1008.24
2022-11-19T11:50:59.651Z,1008.24
2022-11-19T11:51:59.667Z,1008.23
2022-11-19T11:52:59.690Z,1008.28
2022-11-19T11:53:59.762Z,1008.27
2022-11-19T11:54:59.727Z,1008.30
2022-11-19T11:55:59.734Z,1008.29
2022-11-19T11:56:59.757Z,1008.26
2022-11-19T11:57:59.769Z,1008.32
2022-11-19T11:58:59.803Z,1008.28
2022-11-19T11:59:59.808Z,1008.27
2022-11-19T12:00:59.824Z,1008.24
2022-11-19T12:01:59.913Z,1008.23
2022-11-19T12:02:59.859Z,1008.20
2022-11-19T12:03:59.870Z,1008.20
2022-11-19T12:04:59.891Z,1008.19
2022-11-19T12:05:59.906Z,1008.15
2022-11-19T12:06:59.960Z,1008.16
2022-11-19T12:07:59.943Z,1008.17
2022-11-19T12:08:59.972Z,1008.15
2022-11-19T12:09:59.978Z,1008.15
2022-11-19T12:10:59.995Z,1008.15
2022-11-19T12:12:00.012Z,1008.15
2022-11-19T12:13:00.027Z,1008.14
2022-11-19T12:14:00.046Z,1008.14
2022-11-19T12:15:00.062Z,1008.13
2022-11-19T12:16:00.091Z,1008.16
2022-11-19T12:17:00.119Z,1008.18
2022-11-19T12:18:00.115Z,1008.21
2022-11-19T12:19:00.129Z,1008.15
2022-11-19T12:20:00.153Z,1008.16
2022-11-19T12:21:00.165Z,1008.17
2022-11-19T12:22:00.189Z,1008.11
2022-11-19T12:23:00.199Z,1008.09
2022-11-19T12:24:00.217Z,1008.13
2022-11-19T12:25:00.235Z,1008.08
2022-11-19T12:26:00.254Z,1008.08
2022-11-19T12:27:00.262Z,1008.08
2022-11-19T12:28:00.287Z,1008.09
2022-11-19T12:29:00.305Z,1008.05
2022-11-19T12:30:01.171Z,1008.10
2022-11-19T12:31:00.337Z,1008.12
2022-11-19T12:32:00.631Z,1008.07